Time;durP1;ratioP1;P1;durP2;ratioP2;P2;SDS_P1;SDS_P2;PMS_P1;PMS_P2;Temp;Humidity;BMP_temperature;BMP_pressure;BME280_temperature;BME280_humidity;BME280_pressure;Samples;Min_cycle;Max_cycle;Signal;HPM_P1;HPM_P2
2022/05/26 00:01:33;;;;;;;21.30;16.20;;;;;;;14.73;64.76;99165.55;233710;1217;139031;-61
2022/05/26 00:06:36;;;;;;;21.10;16.30;;;;;;;14.70;64.69;99160.59;232840;1217;140754;-59
2022/05/26 00:11:39;;;;;;;19.30;15.90;;;;;;;14.65;64.91;99162.52;232962;1217;139397;-61
2022/05/26 00:16:45;;;;;;;18.80;14.90;;;;;;;14.66;64.90;99159.51;233629;1219;139627;-60
2022/05/26 00:21:49;;;;;;;18.60;14.70;;;;;;;14.68;64.97;99161.61;233606;1219;139657;-59
2022/05/26 00:26:52;;;;;;;20.90;15.40;;;;;;;14.73;65.09;99164.85;233502;1217;140029;-60
2022/05/26 00:31:55;;;;;;;21.30;16.50;;;;;;;14.74;65.19;99161.67;233633;1217;139525;-61
2022/05/26 00:36:58;;;;;;;20.00;16.60;;;;;;;14.70;65.09;99153.59;233675;1217;138724;-60
2022/05/26 00:42:04;;;;;;;19.60;15.90;;;;;;;14.70;65.01;99155.75;233825;1217;138930;-60
2022/05/26 00:47:21;;;;;;;20.40;15.40;;;;;;;14.68;65.10;99160.06;233699;1217;140430;-60
2022/05/26 00:52:33;;;;;;;19.80;15.30;;;;;;;14.65;65.15;99158.27;233216;1219;140278;-59
2022/05/26 00:57:41;;;;;;;22.50;16.80;;;;;;;14.66;65.10;99166.41;233464;1219;138844;-61
2022/05/26 01:02:53;;;;;;;19.50;17.00;;;;;;;14.61;65.16;99169.42;233634;1217;139110;-62
2022/05/26 01:07:57;;;;;;;21.20;17.10;;;;;;;14.56;65.09;99173.28;233846;1217;139415;-60
2022/05/26 01:13:00;;;;;;;20.70;16.70;;;;;;;14.47;64.99;99169.95;232949;1219;139612;-61
2022/05/26 01:18:18;;;;;;;20.00;17.00;;;;;;;14.38;64.93;99165.08;233502;1217;139905;-61
2022/05/26 01:23:38;;;;;;;23.30;18.40;;;;;;;14.36;65.13;99170.80;233260;1217;139771;-59
2022/05/26 01:29:06;;;;;;;24.30;18.80;;;;;;;14.34;65.25;99173.81;233820;1217;139180;-61
2022/05/26 01:34:37;;;;;;;25.30;18.90;;;;;;;14.25;65.04;99167.86;233814;1217;138848;-60
2022/05/26 01:39:51;;;;;;;25.70;19.00;;;;;;;14.16;65.27;99163.20;233253;1217;139055;-61
2022/05/26 01:45:20;;;;;;;25.00;18.70;;;;;;;14.07;65.27;99169.48;233939;1217;139209;-62
2022/05/26 01:50:32;;;;;;;23.50;18.60;;;;;;;14.02;65.32;99176.05;233680;1217;140238;-61
2022/05/26 01:56:09;;;;;;;23.90;18.10;;;;;;;14.03;65.36;99178.25;233752;1217;141408;-61
2022/05/26 02:01:19;;;;;;;26.60;18.30;;;;;;;14.01;65.53;99176.64;233662;1217;139320;-60
2022/05/26 02:06:24;;;;;;;22.20;18.60;;;;;;;13.94;65.35;99184.80;233871;1217;138991;-61
2022/05/26 02:11:28;;;;;;;25.80;19.20;;;;;;;13.90;65.45;99197.45;233658;1217;139796;-60
2022/05/26 02:16:44;;;;;;;22.20;17.40;;;;;;;13.88;65.61;99201.45;233391;1215;139775;-61
2022/05/26 02:22:00;;;;;;;22.70;17.60;;;;;;;13.84;65.29;99201.44;233828;1217;139742;-60
2022/05/26 02:27:06;;;;;;;18.80;15.60;;;;;;;13.85;65.36;99201.54;233493;1217;140008;-61
2022/05/26 02:32:10;;;;;;;19.30;14.70;;;;;;;13.86;65.39;99197.20;231713;1215;139169;-61
2022/05/26 02:37:14;;;;;;;16.50;13.60;;;;;;;13.86;65.47;99196.30;233750;1217;139907;-61
2022/05/26 02:42:18;;;;;;;17.80;14.00;;;;;;;13.81;65.21;99200.02;233682;1217;139736;-61
2022/05/26 02:47:58;;;;;;;16.80;12.90;;;;;;;13.79;65.16;99200.95;233454;1217;139349;-61
2022/05/26 02:53:01;;;;;;;17.10;12.40;;;;;;;13.74;65.17;99201.27;232733;1217;141227;-61
2022/05/26 02:58:13;;;;;;;15.50;12.00;;;;;;;13.70;65.13;99198.17;234116;1217;140081;-59
2022/05/26 03:03:26;;;;;;;14.10;11.70;;;;;;;13.73;65.02;99200.79;233662;1217;139945;-59
2022/05/26 03:08:36;;;;;;;16.50;11.80;;;;;;;13.73;64.90;99201.36;233861;1217;139539;-60
2022/05/26 03:13:39;;;;;;;53.40;43.40;;;;;;;13.73;65.00;99205.95;233591;1217;139456;-59
2022/05/26 03:18:43;;;;;;;16.60;13.30;;;;;;;13.79;65.18;99203.23;233571;1217;139183;-60
2022/05/26 03:23:46;;;;;;;15.70;12.50;;;;;;;13.85;65.02;99203.67;232494;1217;140688;-61
2022/05/26 03:28:49;;;;;;;16.60;12.30;;;;;;;13.87;64.78;99205.70;231616;1217;140322;-62
2022/05/26 03:44:35;;;;;;;14.70;11.90;;;;;;;13.84;64.81;99210.00;231646;1217;139431;-63
2022/05/26 03:49:38;;;;;;;15.10;11.90;;;;;;;13.80;64.77;99213.71;232675;1219;139511;-62
2022/05/26 03:54:41;;;;;;;18.30;11.50;;;;;;;13.81;64.83;99212.73;233440;1217;139530;-62
2022/05/26 03:59:44;;;;;;;17.00;10.80;;;;;;;13.80;64.68;99207.39;233824;1217;138847;-62
2022/05/26 04:04:48;;;;;;;11.50;8.90;;;;;;;13.85;64.75;99215.45;233824;1217;139678;-65
2022/05/26 04:09:51;;;;;;;51.00;42.40;;;;;;;13.92;64.63;99221.88;233744;1217;139517;-62
2022/05/26 04:14:55;;;;;;;13.80;10.60;;;;;;;14.04;64.93;99219.57;233718;1217;139562;-64
2022/05/26 04:19:58;;;;;;;11.50;9.20;;;;;;;14.17;64.89;99216.48;233565;1217;139011;-64
2022/05/26 04:25:02;;;;;;;12.90;9.30;;;;;;;14.22;64.61;99214.16;233554;1217;138724;-64
2022/05/26 04:30:08;;;;;;;15.00;9.60;;;;;;;14.27;64.61;99216.31;233511;1219;141937;-61
2022/05/26 04:35:12;;;;;;;16.90;9.10;;;;;;;14.33;64.52;99223.17;233606;1216;140008;-62
2022/05/26 04:40:15;;;;;;;14.60;7.70;;;;;;;14.34;64.37;99208.65;233605;1217;140074;-61
2022/05/26 04:45:18;;;;;;;12.00;7.00;;;;;;;14.38;64.38;99208.29;233640;1217;139714;-62
2022/05/26 04:50:21;;;;;;;9.20;6.70;;;;;;;14.48;64.50;99212.43;233751;1216;140061;-62
2022/05/26 04:55:24;;;;;;;7.80;5.80;;;;;;;14.55;64.41;99211.05;233791;1217;138471;-63
2022/05/26 05:00:27;;;;;;;8.00;5.80;;;;;;;14.59;64.39;99205.84;233659;1216;139116;-63
2022/05/26 05:05:31;;;;;;;8.90;6.40;;;;;;;14.62;64.32;99214.36;233751;1217;140435;-63
2022/05/26 05:10:34;;;;;;;8.60;5.70;;;;;;;14.63;64.16;99210.20;233677;1219;138627;-62
2022/05/26 05:15:46;;;;;;;6.60;5.10;;;;;;;14.71;64.19;99211.20;233602;1217;139419;-64
2022/05/26 05:20:49;;;;;;;9.10;5.20;;;;;;;14.79;64.17;99212.74;233527;1217;140981;-63
2022/05/26 05:25:54;;;;;;;10.00;5.70;;;;;;;14.90;64.03;99219.04;233640;1217;138786;-62
2022/05/26 05:31:06;;;;;;;8.20;5.30;;;;;;;14.97;63.86;99212.11;233535;1217;138943;-63
2022/05/26 05:36:14;;;;;;;7.30;5.60;;;;;;;15.06;63.80;99208.69;233877;1217;138954;-61
2022/05/26 05:41:18;;;;;;;9.80;5.70;;;;;;;15.11;63.87;99198.80;233803;1217;138753;-61
2022/05/26 05:46:22;;;;;;;9.70;4.70;;;;;;;15.25;63.74;99198.63;233571;1217;142074;-61
2022/05/26 05:51:25;;;;;;;6.90;4.40;;;;;;;15.36;63.67;99194.19;233353;1217;139331;-60
2022/05/26 05:56:28;;;;;;;5.90;4.10;;;;;;;15.49;63.56;99194.10;233754;1216;139729;-63
2022/05/26 06:01:31;;;;;;;4.80;3.90;;;;;;;15.66;63.51;99198.56;232994;1217;139290;-62
2022/05/26 06:06:40;;;;;;;7.00;3.50;;;;;;;15.81;63.39;99196.83;233222;1217;138720;-64
2022/05/26 06:11:45;;;;;;;8.80;3.50;;;;;;;15.95;63.32;99200.54;233685;1215;139198;-62
2022/05/26 06:16:48;;;;;;;7.90;3.30;;;;;;;16.04;62.98;99205.40;233706;1216;139020;-61
2022/05/26 06:21:51;;;;;;;5.80;3.30;;;;;;;16.13;62.90;99204.64;232656;1217;139727;-61
2022/05/26 06:26:54;;;;;;;5.20;3.60;;;;;;;16.20;62.84;99203.14;233215;1216;138527;-61
2022/05/26 06:37:18;;;;;;;6.00;3.30;;;;;;;16.35;62.31;99200.67;233704;1217;138784;-61
2022/05/26 06:42:25;;;;;;;6.00;3.40;;;;;;;16.46;62.62;99206.70;233975;1215;139892;-62
2022/05/26 06:47:36;;;;;;;5.20;3.20;;;;;;;16.59;62.41;99209.98;233529;1217;139092;-61
2022/05/26 06:52:39;;;;;;;6.80;3.70;;;;;;;16.66;62.45;99203.08;233700;1217;139497;-61
2022/05/26 06:57:42;;;;;;;8.80;3.30;;;;;;;16.76;62.30;99195.80;233441;1219;140473;-63
2022/05/26 07:02:46;;;;;;;7.30;3.60;;;;;;;16.88;62.59;99203.04;233730;1217;139511;-63
2022/05/26 07:07:49;;;;;;;5.00;3.10;;;;;;;17.05;62.46;99202.77;233572;1217;140118;-64
2022/05/26 07:12:52;;;;;;;6.40;2.80;;;;;;;17.19;62.39;99209.98;233714;1217;139416;-64
2022/05/26 07:17:55;;;;;;;4.10;2.90;;;;;;;17.35;62.32;99207.23;233615;1217;138911;-64
2022/05/26 07:22:58;;;;;;;7.90;3.30;;;;;;;17.48;61.95;99210.69;233536;1217;138987;-62
2022/05/26 07:28:01;;;;;;;6.90;3.50;;;;;;;17.61;62.03;99212.98;233652;1217;138773;-63
2022/05/26 07:33:04;;;;;;;5.00;3.10;;;;;;;17.75;61.72;99214.30;232928;1216;138675;-64
2022/05/26 07:43:31;;;;;;;8.40;3.10;;;;;;;17.94;61.53;99208.77;233450;1217;139160;-62
2022/05/26 07:48:34;;;;;;;3.90;2.90;;;;;;;18.10;61.15;99215.45;232789;1217;138462;-61
2022/05/26 07:53:37;;;;;;;4.10;2.80;;;;;;;18.22;61.05;99215.78;233717;1215;138868;-61
2022/05/26 07:58:40;;;;;;;52.30;38.20;;;;;;;18.36;61.16;99215.48;233716;1217;139323;-59
2022/05/26 08:03:43;;;;;;;6.00;4.20;;;;;;;18.55;61.11;99218.02;233479;1217;141399;-61
2022/05/26 08:08:46;;;;;;;6.50;3.30;;;;;;;18.79;60.63;99226.20;233577;1217;140476;-60
2022/05/26 08:13:49;;;;;;;7.60;2.60;;;;;;;18.93;60.19;99222.18;233607;1217;139040;-61
2022/05/26 08:18:52;;;;;;;5.60;2.20;;;;;;;19.07;59.78;99220.56;233515;1217;139495;-60
2022/05/26 08:23:55;;;;;;;6.20;2.40;;;;;;;19.26;59.34;99218.59;233459;1217;138973;-64
2022/05/26 08:28:59;;;;;;;40.90;32.90;;;;;;;19.41;58.93;99211.71;233486;1217;139609;-65
2022/05/26 08:34:02;;;;;;;4.90;2.20;;;;;;;19.52;58.46;99213.21;233755;1217;139670;-65
2022/05/26 08:39:05;;;;;;;4.60;2.10;;;;;;;19.63;58.11;99212.73;233723;1217;139285;-65
2022/05/26 08:44:19;;;;;;;6.30;2.00;;;;;;;19.70;57.80;99212.77;233399;1218;139184;-65
2022/05/26 08:49:39;;;;;;;2.80;2.00;;;;;;;19.73;57.47;99210.65;233429;1217;139035;-65
2022/05/26 08:55:04;;;;;;;5.00;2.10;;;;;;;19.77;57.17;99216.31;233704;1217;139248;-65
2022/05/26 09:00:16;;;;;;;7.60;1.70;;;;;;;19.82;56.68;99216.75;233654;1217;139439;-65
2022/05/26 09:05:20;;;;;;;146.70;110.20;;;;;;;19.91;56.49;99209.21;233571;1217;139634;-65
2022/05/26 09:15:58;;;;;;;2.00;1.50;;;;;;;20.13;55.05;99211.73;233793;1217;138919;-65
2022/05/26 09:21:16;;;;;;;4.40;2.00;;;;;;;20.26;54.42;99207.73;233649;1217;139800;-65
2022/05/26 09:26:24;;;;;;;6.10;1.40;;;;;;;20.37;54.12;99209.35;233487;1218;138914;-64
2022/05/26 09:31:35;;;;;;;2.40;1.20;;;;;;;20.35;53.47;99207.83;233569;1217;138724;-65
2022/05/26 09:36:45;;;;;;;2.20;1.20;;;;;;;20.37;52.76;99205.64;233494;1217;138853;-66
2022/05/26 09:41:55;;;;;;;1.50;1.20;;;;;;;20.42;52.46;99202.04;233498;1217;139111;-65
2022/05/26 09:47:03;;;;;;;4.70;1.70;;;;;;;20.46;52.12;99193.16;233713;1217;138557;-65
2022/05/26 09:52:28;;;;;;;4.90;1.10;;;;;;;20.60;51.80;99189.30;233547;1217;139277;-66
2022/05/26 09:57:33;;;;;;;2.30;1.10;;;;;;;20.84;51.18;99198.52;233448;1217;139004;-66
2022/05/26 10:02:40;;;;;;;2.90;1.10;;;;;;;21.11;50.75;99192.52;233794;1216;139254;-66
2022/05/26 10:08:15;;;;;;;4.00;1.00;;;;;;;21.31;50.35;99192.59;233533;1216;138843;-66
2022/05/26 10:13:28;;;;;;;3.80;1.30;;;;;;;21.48;49.70;99183.26;233714;1217;138250;-65
2022/05/26 10:18:42;;;;;;;7.40;1.00;;;;;;;21.56;49.09;99187.90;233413;1217;138912;-66
2022/05/26 10:23:45;;;;;;;6.30;1.30;;;;;;;21.59;48.45;99193.10;233372;1217;139603;-66
2022/05/26 10:29:17;;;;;;;4.50;1.20;;;;;;;21.71;48.18;99194.40;233579;1217;138841;-66
2022/05/26 10:35:02;;;;;;;2.70;1.00;;;;;;;21.92;47.45;99182.88;233586;1217;138927;-65
2022/05/26 10:40:14;;;;;;;5.40;1.30;;;;;;;21.87;46.47;99198.44;233676;1217;139107;-66
2022/05/26 10:45:21;;;;;;;5.60;1.50;;;;;;;21.67;46.30;99191.29;233571;1217;139730;-65
2022/05/26 10:50:42;;;;;;;7.80;1.30;;;;;;;21.47;46.02;99205.52;233516;1217;140310;-65
2022/05/26 10:55:48;;;;;;;5.30;1.30;;;;;;;21.31;45.99;99197.63;233606;1217;139507;-65
2022/05/26 11:00:58;;;;;;;8.40;1.80;;;;;;;21.32;46.22;99198.61;233524;1217;139209;-66
2022/05/26 11:06:05;;;;;;;8.70;1.20;;;;;;;21.43;46.53;99195.10;233676;1216;139315;-66
2022/05/26 11:11:21;;;;;;;3.50;1.30;;;;;;;21.64;46.44;99189.91;233587;1217;139191;-66
2022/05/26 11:21:56;;;;;;;4.30;1.70;;;;;;;21.91;45.67;99189.36;233669;1217;138693;-66
2022/05/26 11:27:07;;;;;;;6.40;1.30;;;;;;;21.84;45.25;99194.62;233567;1217;138783;-65
2022/05/26 11:37:36;;;;;;;3.40;1.30;;;;;;;22.21;44.88;99173.06;233955;1217;138779;-64
2022/05/26 11:42:47;;;;;;;14.30;1.30;;;;;;;22.43;44.63;99168.91;234305;1217;138729;-65
2022/05/26 11:48:00;;;;;;;4.60;1.00;;;;;;;22.41;44.53;99177.59;234099;1216;138764;-64
2022/05/26 11:53:44;;;;;;;3.50;1.10;;;;;;;22.33;44.11;99173.23;234267;1216;139492;-63
2022/05/26 11:59:19;;;;;;;5.60;1.90;;;;;;;22.44;43.94;99168.86;233224;1216;138834;-64
2022/05/26 12:04:25;;;;;;;5.10;1.10;;;;;;;22.45;43.23;99167.42;234266;1216;139051;-63
2022/05/26 12:09:34;;;;;;;5.70;1.10;;;;;;;22.41;43.28;99158.98;234088;1216;139025;-63
2022/05/26 12:14:46;;;;;;;3.80;1.10;;;;;;;22.45;43.10;99168.52;234245;1217;140338;-63
2022/05/26 12:19:50;;;;;;;7.20;1.00;;;;;;;22.43;42.94;99166.36;234054;1217;139570;-63
2022/05/26 12:24:59;;;;;;;8.60;1.30;;;;;;;22.39;42.68;99162.61;234214;1216;138757;-63
2022/05/26 12:30:05;;;;;;;4.70;1.40;;;;;;;22.33;42.69;99164.94;232655;1216;138523;-64
2022/05/26 12:35:47;;;;;;;2.50;1.00;;;;;;;22.25;42.73;99169.64;234109;1217;138661;-64
2022/05/26 12:41:00;;;;;;;4.30;1.00;;;;;;;22.30;42.72;99169.85;234353;1216;138711;-65
2022/05/26 12:46:25;;;;;;;5.30;1.30;;;;;;;22.35;42.58;99159.48;234362;1217;139195;-64
2022/05/26 12:51:35;;;;;;;3.80;0.90;;;;;;;22.36;42.13;99170.00;234766;1216;107811;-63
2022/05/26 12:56:46;;;;;;;4.40;1.10;;;;;;;22.25;42.15;99157.70;234671;1217;96015;-63
2022/05/26 13:01:50;;;;;;;6.70;1.10;;;;;;;22.21;42.08;99153.39;234657;1217;137933;-64
2022/05/26 13:06:54;;;;;;;3.30;1.10;;;;;;;22.22;41.80;99154.97;233822;1217;138520;-63
2022/05/26 13:12:01;;;;;;;5.20;0.90;;;;;;;22.21;41.64;99143.64;234017;1217;138888;-63
2022/05/26 13:17:16;;;;;;;4.20;0.80;;;;;;;22.21;41.54;99152.02;234233;1217;138738;-63
2022/05/26 13:22:28;;;;;;;3.70;0.90;;;;;;;22.25;41.41;99145.98;234113;1217;139816;-62
2022/05/26 13:27:53;;;;;;;4.30;0.90;;;;;;;22.30;41.34;99141.25;233882;1217;139134;-64
2022/05/26 13:33:11;;;;;;;10.40;0.70;;;;;;;22.37;41.11;99145.89;233902;1217;138368;-63
2022/05/26 13:38:22;;;;;;;4.40;0.80;;;;;;;22.50;41.29;99134.17;234133;1217;139545;-64
2022/05/26 13:43:26;;;;;;;7.30;1.00;;;;;;;22.51;41.32;99133.88;234058;1217;138817;-64
2022/05/26 13:48:37;;;;;;;4.40;1.10;;;;;;;22.90;41.55;99126.54;234385;1217;139357;-64
2022/05/26 13:53:43;;;;;;;6.20;0.90;;;;;;;23.37;41.35;99133.36;234279;1216;139560;-64
2022/05/26 13:58:54;;;;;;;6.00;2.00;;;;;;;23.50;41.10;99133.83;233076;1215;138891;-65
2022/05/26 14:04:02;;;;;;;2.90;1.00;;;;;;;23.46;40.78;99139.55;233928;1217;138958;-64
2022/05/26 14:09:23;;;;;;;3.00;1.30;;;;;;;23.20;40.65;99133.06;234198;1217;138698;-64
2022/05/26 14:14:38;;;;;;;8.40;1.30;;;;;;;23.07;41.02;99123.70;234150;1217;139182;-64
2022/05/26 14:19:48;;;;;;;4.60;1.10;;;;;;;23.03;41.10;99130.67;232679;1217;138365;-64
2022/05/26 14:24:56;;;;;;;3.90;0.80;;;;;;;23.03;41.04;99121.05;232468;1216;139256;-64
2022/05/26 14:30:38;;;;;;;17.80;11.10;;;;;;;23.10;41.08;99117.02;234233;1217;139516;-64
2022/05/26 14:35:41;;;;;;;5.20;0.90;;;;;;;23.09;40.95;99121.94;234147;1216;139402;-65
2022/05/26 14:40:45;;;;;;;5.00;0.90;;;;;;;23.03;40.67;99125.34;234135;1217;138821;-64
2022/05/26 14:45:50;;;;;;;3.30;1.10;;;;;;;22.91;40.79;99118.22;233918;1217;139439;-65
2022/05/26 14:50:53;;;;;;;4.50;1.00;;;;;;;22.83;40.86;99125.16;234247;1217;139840;-64
2022/05/26 14:55:56;;;;;;;3.70;1.00;;;;;;;22.75;40.82;99124.56;234092;1217;138742;-64
2022/05/26 15:01:00;;;;;;;2.80;0.90;;;;;;;22.61;40.74;99108.84;234046;1217;138753;-64
2022/05/26 15:06:03;;;;;;;3.50;0.80;;;;;;;22.55;40.88;99115.93;234209;1217;138543;-64
2022/05/26 15:11:18;;;;;;;1.30;0.70;;;;;;;22.50;40.72;99117.93;234275;1216;140734;-62
2022/05/26 15:16:24;;;;;;;4.90;0.80;;;;;;;22.46;40.70;99106.27;234018;1217;138997;-60
2022/05/26 15:21:28;;;;;;;1.20;0.50;;;;;;;22.45;40.67;99101.23;234208;1216;139380;-62
2022/05/26 15:26:31;;;;;;;1.80;0.70;;;;;;;22.49;40.69;99093.65;234201;1215;138429;-62
2022/05/26 15:31:34;;;;;;;4.90;0.80;;;;;;;22.47;40.43;99096.71;234235;1217;138763;-62
2022/05/26 15:36:37;;;;;;;4.70;0.90;;;;;;;22.39;40.44;99101.14;234297;1217;138889;-62
2022/05/26 15:41:40;;;;;;;2.80;0.70;;;;;;;22.32;40.43;99098.33;234062;1217;139002;-60
2022/05/26 15:46:46;;;;;;;1.80;0.90;;;;;;;22.26;40.68;99101.41;234062;1217;138457;-63
2022/05/26 15:51:52;;;;;;;28.00;21.10;;;;;;;22.17;40.35;99106.17;233835;1219;140195;-63
2022/05/26 15:56:57;;;;;;;9.80;1.70;;;;;;;22.18;40.44;99110.36;233823;1217;139450;-63
2022/05/26 16:02:00;;;;;;;4.70;0.70;;;;;;;22.18;40.11;99112.05;234013;1215;138790;-63
2022/05/26 16:07:03;;;;;;;6.90;1.10;;;;;;;22.13;40.05;99108.41;234160;1217;138504;-62
2022/05/26 16:12:07;;;;;;;2.70;0.90;;;;;;;22.14;40.04;99115.19;234123;1217;139530;-62
2022/05/26 16:17:10;;;;;;;12.90;6.50;;;;;;;22.13;40.00;99117.98;234037;1217;138338;-63
2022/05/26 16:22:23;;;;;;;11.90;6.30;;;;;;;22.11;40.06;99122.34;233214;1216;139712;-63
2022/05/26 16:27:26;;;;;;;5.40;1.70;;;;;;;22.08;40.22;99124.27;234179;1215;139149;-62
2022/05/26 16:32:31;;;;;;;2.10;0.90;;;;;;;22.02;40.29;99122.43;234315;1216;138776;-62
2022/05/26 16:37:35;;;;;;;1.60;0.70;;;;;;;21.95;40.42;99122.08;234244;1216;138901;-63
2022/05/26 16:42:38;;;;;;;1.90;1.00;;;;;;;21.90;40.69;99128.88;234344;1216;139120;-63
2022/05/26 16:47:41;;;;;;;3.10;0.90;;;;;;;21.88;40.80;99123.69;234368;1217;139012;-63
2022/05/26 16:52:44;;;;;;;2.80;0.90;;;;;;;21.88;40.75;99136.93;234165;1217;138523;-62
2022/05/26 16:57:47;;;;;;;19.70;10.40;;;;;;;21.86;40.69;99140.54;234287;1216;139652;-62
2022/05/26 17:02:50;;;;;;;4.60;2.60;;;;;;;21.83;40.99;99138.50;234087;1217;139418;-61
2022/05/26 17:07:53;;;;;;;4.10;1.10;;;;;;;21.84;40.86;99142.80;234320;1217;139685;-59
2022/05/26 17:23:43;;;;;;;3.50;0.90;;;;;;;21.70;40.90;99139.37;233964;1217;139334;-59
2022/05/26 17:28:46;;;;;;;2.00;0.70;;;;;;;21.63;41.04;99132.71;234169;1215;139472;-62
2022/05/26 17:33:49;;;;;;;67.40;59.70;;;;;;;21.56;41.24;99134.61;234124;1217;138956;-60
2022/05/26 17:38:52;;;;;;;3.70;1.80;;;;;;;21.53;41.23;99134.50;233855;1216;139008;-61
2022/05/26 17:43:56;;;;;;;4.70;1.40;;;;;;;21.49;41.24;99132.06;233872;1217;138905;-60
2022/05/26 17:48:59;;;;;;;1.90;0.90;;;;;;;21.44;41.35;99132.59;234016;1217;139172;-62
2022/05/26 17:54:17;;;;;;;4.20;1.20;;;;;;;21.41;41.47;99128.92;233341;1217;139131;-63
2022/05/26 17:59:21;;;;;;;7.90;1.30;;;;;;;21.41;41.53;99132.37;231788;1217;138331;-62
2022/05/26 18:04:24;;;;;;;2.70;0.90;;;;;;;21.36;41.62;99128.94;231869;1216;138366;-60
2022/05/26 18:09:27;;;;;;;6.20;1.30;;;;;;;21.31;41.76;99127.80;233869;1217;138821;-60
2022/05/26 18:14:33;;;;;;;2.10;1.00;;;;;;;21.30;41.78;99125.95;232655;1217;139620;-60
2022/05/26 18:19:42;;;;;;;4.40;1.20;;;;;;;21.27;41.91;99124.45;234039;1217;139319;-61
2022/05/26 18:24:45;;;;;;;3.70;1.20;;;;;;;21.23;42.04;99136.18;234210;1216;138351;-61
2022/05/26 18:29:49;;;;;;;60.50;52.00;;;;;;;21.21;42.21;99131.33;234182;1216;138693;-62
2022/05/26 18:35:08;;;;;;;4.40;2.70;;;;;;;21.27;42.36;99132.59;232596;1216;139211;-63
2022/05/26 18:40:19;;;;;;;62.40;48.10;;;;;;;21.27;42.19;99135.08;233221;1217;141001;-63
2022/05/26 18:45:22;;;;;;;12.00;6.50;;;;;;;21.28;42.39;99136.79;234069;1217;138650;-63
2022/05/26 18:50:29;;;;;;;8.70;1.30;;;;;;;21.26;42.46;99139.44;234142;1216;140402;-63
2022/05/26 18:55:41;;;;;;;5.80;1.50;;;;;;;21.22;42.47;99142.74;233995;1217;138783;-63
2022/05/26 19:00:49;;;;;;;5.80;1.60;;;;;;;21.20;42.39;99153.66;232002;1216;138885;-63
2022/05/26 19:06:14;;;;;;;4.00;1.70;;;;;;;21.17;42.40;99160.88;233648;1216;138462;-62
2022/05/26 19:11:41;;;;;;;54.30;39.30;;;;;;;21.10;42.51;99156.92;233878;1216;138497;-63
2022/05/26 19:16:45;;;;;;;11.10;6.40;;;;;;;21.06;42.61;99161.11;234209;1216;139442;-62
2022/05/26 19:21:48;;;;;;;5.50;1.90;;;;;;;21.01;42.76;99164.42;234178;1216;139115;-63
2022/05/26 19:26:56;;;;;;;3.40;1.50;;;;;;;20.98;42.70;99166.34;234190;1217;138665;-62
2022/05/26 19:32:00;;;;;;;9.70;1.80;;;;;;;20.96;42.83;99167.51;234151;1217;138841;-63
2022/05/26 19:37:04;;;;;;;3.90;1.50;;;;;;;20.93;42.89;99166.38;232034;1216;138526;-62
2022/05/26 19:42:16;;;;;;;6.60;1.70;;;;;;;20.88;42.90;99168.12;234145;1215;138433;-62
2022/05/26 19:47:24;;;;;;;4.70;1.60;;;;;;;20.87;43.02;99174.41;234186;1216;138693;-62
2022/05/26 19:52:27;;;;;;;5.30;1.70;;;;;;;20.87;43.20;99169.59;234232;1214;139317;-64
2022/05/26 19:57:30;;;;;;;4.90;1.70;;;;;;;20.85;43.20;99177.50;233465;1216;138679;-62
2022/05/26 20:02:33;;;;;;;7.00;1.70;;;;;;;20.82;43.31;99174.02;233889;1217;138842;-63
2022/05/26 20:07:37;;;;;;;8.20;1.70;;;;;;;20.80;43.43;99179.80;232599;1216;138385;-63
2022/05/26 20:12:40;;;;;;;8.20;1.70;;;;;;;20.79;43.50;99175.98;232658;1215;139099;-62
2022/05/26 20:17:43;;;;;;;7.20;1.40;;;;;;;20.75;43.54;99175.13;234081;1217;139284;-63
2022/05/26 20:22:46;;;;;;;7.90;1.50;;;;;;;20.71;43.55;99174.10;234164;1217;138441;-63
2022/05/26 20:33:12;;;;;;;3.80;1.30;;;;;;;20.62;43.80;99183.27;232238;1217;138407;-60
2022/05/26 20:38:18;;;;;;;9.20;1.60;;;;;;;20.55;43.87;99182.92;234084;1217;139514;-62
2022/05/26 20:43:22;;;;;;;5.00;1.50;;;;;;;20.50;44.01;99192.05;232278;1217;138725;-62
2022/05/26 20:48:27;;;;;;;5.60;1.60;;;;;;;20.46;44.12;99191.04;234199;1216;138809;-62
2022/05/26 20:53:30;;;;;;;4.50;1.60;;;;;;;20.40;44.18;99189.25;234160;1217;138551;-63
2022/05/26 20:58:34;;;;;;;4.40;1.80;;;;;;;20.35;44.25;99196.27;233202;1217;139334;-62
2022/05/26 21:03:37;;;;;;;9.30;1.90;;;;;;;20.28;44.48;99195.52;233400;1217;138363;-60
2022/05/26 21:08:41;;;;;;;4.10;1.70;;;;;;;20.23;44.56;99189.51;231990;1216;138847;-63
2022/05/26 21:13:44;;;;;;;3.70;2.00;;;;;;;20.16;44.69;99188.09;234011;1217;138739;-62
2022/05/26 21:18:47;;;;;;;6.00;1.70;;;;;;;20.14;44.93;99185.03;234111;1217;138984;-63
2022/05/26 21:23:50;;;;;;;7.00;1.80;;;;;;;20.08;45.02;99184.07;233711;1216;138994;-64
2022/05/26 21:28:54;;;;;;;5.20;1.80;;;;;;;20.04;45.16;99188.30;232759;1216;138493;-63
2022/05/26 21:33:57;;;;;;;7.60;2.10;;;;;;;20.00;45.28;99183.80;232639;1216;139351;-64
2022/05/26 21:39:02;;;;;;;7.90;1.90;;;;;;;19.96;45.43;99186.23;231643;1216;138423;-63
2022/05/26 21:44:05;;;;;;;7.50;2.20;;;;;;;19.92;45.63;99188.23;232544;1216;139124;-63
2022/05/26 21:49:09;;;;;;;4.40;2.00;;;;;;;19.87;45.74;99190.89;233940;1217;138786;-64
2022/05/26 21:54:16;;;;;;;6.40;2.30;;;;;;;19.83;45.90;99189.27;233343;1217;138438;-62
2022/05/26 21:59:19;;;;;;;6.50;2.30;;;;;;;19.78;46.01;99185.27;234330;1217;138764;-63
2022/05/26 22:04:25;;;;;;;6.40;2.50;;;;;;;19.76;46.17;99192.73;234040;1216;139980;-62
2022/05/26 22:10:40;;;;;;;4.70;2.10;;;;;;;19.72;46.19;99188.77;233263;1217;139922;-62
2022/05/26 22:14:55;;;;;;;7.90;2.10;;;;;;;19.67;46.32;99191.24;231891;1215;138454;-61
2022/05/26 22:19:59;;;;;;;4.30;2.10;;;;;;;19.59;46.41;99192.30;233873;1217;138624;-61
2022/05/26 22:25:06;;;;;;;4.10;2.00;;;;;;;19.54;46.62;99193.92;232693;1216;139581;-63
2022/05/26 22:30:16;;;;;;;3.90;1.70;;;;;;;19.49;46.75;99195.09;233585;1217;138756;-63
2022/05/26 22:35:22;;;;;;;3.00;1.90;;;;;;;19.40;46.81;99190.08;234263;1215;138455;-62
2022/05/26 22:40:38;;;;;;;5.50;2.10;;;;;;;19.34;46.96;99192.02;231925;1216;138530;-61
2022/05/26 22:45:53;;;;;;;5.00;2.10;;;;;;;19.28;47.13;99192.25;233672;1217;139192;-61
2022/05/26 22:50:56;;;;;;;5.90;1.90;;;;;;;19.27;47.27;99189.36;233209;1215;138276;-62
2022/05/26 22:55:59;;;;;;;3.10;2.00;;;;;;;19.26;47.34;99187.77;232888;1216;138729;-61
2022/05/26 23:01:04;;;;;;;4.50;1.80;;;;;;;19.25;47.35;99181.80;233371;1217;139038;-62
2022/05/26 23:06:08;;;;;;;4.10;1.90;;;;;;;19.25;47.50;99178.21;233111;1217;138402;-63
2022/05/26 23:11:12;;;;;;;4.20;1.80;;;;;;;19.22;47.44;99172.84;234289;1215;139167;-62
2022/05/26 23:16:15;;;;;;;3.60;2.10;;;;;;;19.21;47.55;99171.77;233562;1217;139186;-63
2022/05/26 23:21:21;;;;;;;4.90;2.00;;;;;;;19.16;47.64;99171.28;233674;1216;139271;-62
2022/05/26 23:26:24;;;;;;;4.20;2.50;;;;;;;19.13;47.61;99165.61;234355;1217;138878;-63
2022/05/26 23:31:27;;;;;;;5.50;1.80;;;;;;;19.12;47.82;99167.13;233011;1217;138406;-62
2022/05/26 23:36:31;;;;;;;3.60;1.80;;;;;;;19.10;47.88;99168.14;232020;1217;138885;-60
2022/05/26 23:46:57;;;;;;;4.10;1.70;;;;;;;19.01;47.97;99172.34;231938;1216;138461;-61
2022/05/26 23:52:00;;;;;;;4.20;2.10;;;;;;;18.97;48.10;99170.26;233007;1217;138699;-64
